sensor_id;sensor_type;location;lat;lon;timestamp;P1;P2;P0
46302;PMS7003;32029;51.358;5.628;2022-07-29T00:00:09;8.60;6.20;6.00
46302;PMS7003;32029;51.358;5.628;2022-07-29T00:02:36;6.00;6.00;5.33
46302;PMS7003;32029;51.358;5.628;2022-07-29T00:05:04;6.80;6.80;6.00
46302;PMS7003;32029;51.358;5.628;2022-07-29T00:07:32;7.00;5.00;4.00
46302;PMS7003;32029;51.358;5.628;2022-07-29T00:10:00;7.00;6.00;5.00
46302;PMS7003;32029;51.358;5.628;2022-07-29T00:12:27;5.00;5.00;4.67
46302;PMS7003;32029;51.358;5.628;2022-07-29T00:14:55;7.40;5.40;5.00
46302;PMS7003;32029;51.358;5.628;2022-07-29T00:17:23;5.00;5.00;5.00
46302;PMS7003;32029;51.358;5.628;2022-07-29T00:19:51;5.40;5.20;4.80
46302;PMS7003;32029;51.358;5.628;2022-07-29T00:22:20;6.00;6.00;5.00
46302;PMS7003;32029;51.358;5.628;2022-07-29T00:24:48;7.20;6.20;5.60
46302;PMS7003;32029;51.358;5.628;2022-07-29T00:27:17;6.20;5.60;4.60
46302;PMS7003;32029;51.358;5.628;2022-07-29T00:29:45;6.80;5.60;4.00
46302;PMS7003;32029;51.358;5.628;2022-07-29T00:32:13;6.60;6.00;5.80
46302;PMS7003;32029;51.358;5.628;2022-07-29T00:34:41;5.00;5.00;4.00
46302;PMS7003;32029;51.358;5.628;2022-07-29T00:37:27;4.00;4.00;3.20
46302;PMS7003;32029;51.358;5.628;2022-07-29T00:39:54;5.33;5.00;4.67
46302;PMS7003;32029;51.358;5.628;2022-07-29T00:42:21;6.60;5.20;4.40
46302;PMS7003;32029;51.358;5.628;2022-07-29T00:44:49;7.40;6.40;5.60
46302;PMS7003;32029;51.358;5.628;2022-07-29T00:47:17;6.40;6.40;5.00
46302;PMS7003;32029;51.358;5.628;2022-07-29T00:49:44;8.67;6.33;5.67
46302;PMS7003;32029;51.358;5.628;2022-07-29T00:52:12;10.20;9.00;7.60
46302;PMS7003;32029;51.358;5.628;2022-07-29T00:54:39;8.00;6.67;6.00
46302;PMS7003;32029;51.358;5.628;2022-07-29T00:57:07;8.00;7.00;6.00
46302;PMS7003;32029;51.358;5.628;2022-07-29T00:59:35;7.20;7.20;6.40
46302;PMS7003;32029;51.358;5.628;2022-07-29T01:02:02;9.00;9.00;7.00
46302;PMS7003;32029;51.358;5.628;2022-07-29T01:04:30;8.20;6.00;5.20
46302;PMS7003;32029;51.358;5.628;2022-07-29T01:07:02;9.60;7.80;7.00
46302;PMS7003;32029;51.358;5.628;2022-07-29T01:09:31;8.80;7.80;6.20
46302;PMS7003;32029;51.358;5.628;2022-07-29T01:12:01;6.00;6.00;5.20
46302;PMS7003;32029;51.358;5.628;2022-07-29T01:14:29;9.40;8.00;6.00
46302;PMS7003;32029;51.358;5.628;2022-07-29T01:16:59;7.20;6.20;5.00
46302;PMS7003;32029;51.358;5.628;2022-07-29T01:19:49;8.60;7.60;6.00
46302;PMS7003;32029;51.358;5.628;2022-07-29T01:31:07;7.60;5.00;5.00
46302;PMS7003;32029;51.358;5.628;2022-07-29T01:33:38;7.67;5.00;4.33
46302;PMS7003;32029;51.358;5.628;2022-07-29T01:36:30;7.00;7.00;6.00
46302;PMS7003;32029;51.358;5.628;2022-07-29T01:39:05;8.33;6.00;5.00
46302;PMS7003;32029;51.358;5.628;2022-07-29T01:41:38;5.80;5.80;4.40
46302;PMS7003;32029;51.358;5.628;2022-07-29T01:44:13;7.20;7.00;6.00
46302;PMS7003;32029;51.358;5.628;2022-07-29T01:46:50;9.20;6.80;6.00
46302;PMS7003;32029;51.358;5.628;2022-07-29T01:49:22;6.60;6.60;5.80
46302;PMS7003;32029;51.358;5.628;2022-07-29T01:51:55;9.20;7.00;6.00
46302;PMS7003;32029;51.358;5.628;2022-07-29T01:54:42;8.00;6.80;6.40
46302;PMS7003;32029;51.358;5.628;2022-07-29T01:57:14;9.00;9.00;7.20
46302;PMS7003;32029;51.358;5.628;2022-07-29T01:59:46;9.40;7.40;7.40
46302;PMS7003;32029;51.358;5.628;2022-07-29T02:02:16;9.80;7.80;6.60
46302;PMS7003;32029;51.358;5.628;2022-07-29T02:04:45;6.40;6.40;5.80
46302;PMS7003;32029;51.358;5.628;2022-07-29T02:07:18;7.60;6.20;5.80
46302;PMS7003;32029;51.358;5.628;2022-07-29T02:09:47;6.00;6.00;5.00
46302;PMS7003;32029;51.358;5.628;2022-07-29T02:12:18;9.00;7.20;5.80
46302;PMS7003;32029;51.358;5.628;2022-07-29T02:14:49;6.20;6.20;5.20
46302;PMS7003;32029;51.358;5.628;2022-07-29T02:17:31;6.80;6.00;4.20
46302;PMS7003;32029;51.358;5.628;2022-07-29T02:20:03;7.00;7.00;6.00
46302;PMS7003;32029;51.358;5.628;2022-07-29T02:22:33;9.60;6.20;5.60
46302;PMS7003;32029;51.358;5.628;2022-07-29T02:25:04;6.40;6.40;5.00
46302;PMS7003;32029;51.358;5.628;2022-07-29T02:27:35;6.43;6.43;5.71
46302;PMS7003;32029;51.358;5.628;2022-07-29T02:30:07;7.20;6.80;6.00
46302;PMS7003;32029;51.358;5.628;2022-07-29T02:32:36;7.80;7.80;6.40
46302;PMS7003;32029;51.358;5.628;2022-07-29T02:35:07;6.00;6.00;5.00
46302;PMS7003;32029;51.358;5.628;2022-07-29T02:37:36;6.33;6.33;5.00
46302;PMS7003;32029;51.358;5.628;2022-07-29T02:40:04;7.80;7.40;5.40
46302;PMS7003;32029;51.358;5.628;2022-07-29T02:42:37;7.80;7.00;6.00
46302;PMS7003;32029;51.358;5.628;2022-07-29T02:45:08;7.00;7.00;6.00
46302;PMS7003;32029;51.358;5.628;2022-07-29T02:47:39;6.00;6.00;5.20
46302;PMS7003;32029;51.358;5.628;2022-07-29T02:50:15;5.80;4.80;4.00
46302;PMS7003;32029;51.358;5.628;2022-07-29T02:52:52;6.00;6.00;5.40
46302;PMS7003;32029;51.358;5.628;2022-07-29T02:55:35;8.80;7.80;6.20
46302;PMS7003;32029;51.358;5.628;2022-07-29T03:00:45;7.20;7.20;6.00
46302;PMS7003;32029;51.358;5.628;2022-07-29T03:03:16;7.00;7.00;6.00
46302;PMS7003;32029;51.358;5.628;2022-07-29T03:05:45;7.67;6.67;4.67
46302;PMS7003;32029;51.358;5.628;2022-07-29T03:08:12;7.00;7.00;6.00
46302;PMS7003;32029;51.358;5.628;2022-07-29T03:10:43;10.60;7.80;6.20
46302;PMS7003;32029;51.358;5.628;2022-07-29T03:13:12;7.40;7.00;5.60
46302;PMS7003;32029;51.358;5.628;2022-07-29T03:15:44;10.00;8.00;6.40
46302;PMS7003;32029;51.358;5.628;2022-07-29T03:18:12;10.60;8.60;7.80
46302;PMS7003;32029;51.358;5.628;2022-07-29T03:20:41;9.60;8.60;7.00
46302;PMS7003;32029;51.358;5.628;2022-07-29T03:23:10;7.20;6.00;5.20
46302;PMS7003;32029;51.358;5.628;2022-07-29T03:25:37;8.00;8.00;6.60
46302;PMS7003;32029;51.358;5.628;2022-07-29T03:28:05;8.00;8.00;6.40
46302;PMS7003;32029;51.358;5.628;2022-07-29T03:30:35;9.40;7.40;6.60
46302;PMS7003;32029;51.358;5.628;2022-07-29T03:33:03;8.00;7.40;6.00
46302;PMS7003;32029;51.358;5.628;2022-07-29T03:35:30;8.80;7.60;7.60
46302;PMS7003;32029;51.358;5.628;2022-07-29T03:37:58;8.67;8.33;7.00
46302;PMS7003;32029;51.358;5.628;2022-07-29T03:40:27;6.60;6.60;5.60
46302;PMS7003;32029;51.358;5.628;2022-07-29T03:43:00;8.80;7.20;6.80
46302;PMS7003;32029;51.358;5.628;2022-07-29T03:45:31;7.60;7.60;6.60
46302;PMS7003;32029;51.358;5.628;2022-07-29T03:48:04;8.40;8.40;7.00
46302;PMS7003;32029;51.358;5.628;2022-07-29T03:50:34;7.00;7.00;6.00
46302;PMS7003;32029;51.358;5.628;2022-07-29T03:53:02;6.00;6.00;5.00
46302;PMS7003;32029;51.358;5.628;2022-07-29T03:55:32;7.00;6.20;5.80
46302;PMS7003;32029;51.358;5.628;2022-07-29T03:58:10;8.20;7.20;5.80
46302;PMS7003;32029;51.358;5.628;2022-07-29T04:00:40;7.00;7.00;6.20
46302;PMS7003;32029;51.358;5.628;2022-07-29T04:03:09;7.40;7.40;6.20
46302;PMS7003;32029;51.358;5.628;2022-07-29T04:05:37;7.20;7.20;6.40
46302;PMS7003;32029;51.358;5.628;2022-07-29T04:08:04;9.00;9.00;7.67
46302;PMS7003;32029;51.358;5.628;2022-07-29T04:10:31;10.33;9.00;7.67
46302;PMS7003;32029;51.358;5.628;2022-07-29T04:12:59;9.40;9.00;7.00
46302;PMS7003;32029;51.358;5.628;2022-07-29T04:15:27;7.80;7.80;6.20
46302;PMS7003;32029;51.358;5.628;2022-07-29T04:17:55;9.40;8.40;6.00
46302;PMS7003;32029;51.358;5.628;2022-07-29T04:20:23;11.00;8.20;7.00
46302;PMS7003;32029;51.358;5.628;2022-07-29T04:22:51;7.40;7.40;7.00
46302;PMS7003;32029;51.358;5.628;2022-07-29T04:25:18;10.33;9.00;7.00
46302;PMS7003;32029;51.358;5.628;2022-07-29T04:27:46;8.60;8.60;7.00
46302;PMS7003;32029;51.358;5.628;2022-07-29T04:30:29;8.20;8.00;7.20
46302;PMS7003;32029;51.358;5.628;2022-07-29T04:32:57;12.67;11.00;8.00
46302;PMS7003;32029;51.358;5.628;2022-07-29T04:35:26;9.40;9.40;8.80
46302;PMS7003;32029;51.358;5.628;2022-07-29T04:37:54;9.80;8.80;7.40
46302;PMS7003;32029;51.358;5.628;2022-07-29T04:40:22;9.20;9.20;7.60
46302;PMS7003;32029;51.358;5.628;2022-07-29T04:42:50;8.60;8.00;6.40
46302;PMS7003;32029;51.358;5.628;2022-07-29T04:45:17;4.80;4.40;3.80
46302;PMS7003;32029;51.358;5.628;2022-07-29T04:47:44;5.33;5.00;4.00
46302;PMS7003;32029;51.358;5.628;2022-07-29T04:50:11;6.33;3.00;2.00
46302;PMS7003;32029;51.358;5.628;2022-07-29T04:52:37;7.67;4.67;4.00
46302;PMS7003;32029;51.358;5.628;2022-07-29T04:55:04;5.33;4.67;4.00
46302;PMS7003;32029;51.358;5.628;2022-07-29T04:57:31;5.00;4.00;3.67
46302;PMS7003;32029;51.358;5.628;2022-07-29T04:59:58;3.67;3.67;3.33
46302;PMS7003;32029;51.358;5.628;2022-07-29T05:02:25;5.67;4.67;4.00
46302;PMS7003;32029;51.358;5.628;2022-07-29T05:04:53;4.00;4.00;3.20
46302;PMS7003;32029;51.358;5.628;2022-07-29T05:07:19;5.00;4.67;4.33
46302;PMS7003;32029;51.358;5.628;2022-07-29T05:09:46;3.00;3.00;3.00
46302;PMS7003;32029;51.358;5.628;2022-07-29T05:12:13;6.00;5.00;4.00
46302;PMS7003;32029;51.358;5.628;2022-07-29T05:14:39;0.00;0.00;0.00
46302;PMS7003;32029;51.358;5.628;2022-07-29T05:17:06;6.67;5.00;4.00
46302;PMS7003;32029;51.358;5.628;2022-07-29T05:19:33;5.33;4.33;3.33
46302;PMS7003;32029;51.358;5.628;2022-07-29T05:21:59;7.00;4.33;4.33
46302;PMS7003;32029;51.358;5.628;2022-07-29T05:24:27;6.00;4.80;4.00
46302;PMS7003;32029;51.358;5.628;2022-07-29T05:26:54;8.67;7.33;6.00
46302;PMS7003;32029;51.358;5.628;2022-07-29T05:29:22;6.00;4.80;4.00
46302;PMS7003;32029;51.358;5.628;2022-07-29T05:31:50;5.60;5.60;5.20
46302;PMS7003;32029;51.358;5.628;2022-07-29T05:34:18;6.33;5.00;5.00
46302;PMS7003;32029;51.358;5.628;2022-07-29T05:36:45;5.67;5.00;4.33
46302;PMS7003;32029;51.358;5.628;2022-07-29T05:39:12;5.67;4.33;4.00
46302;PMS7003;32029;51.358;5.628;2022-07-29T05:41:39;7.67;5.67;5.00
46302;PMS7003;32029;51.358;5.628;2022-07-29T05:44:06;4.33;4.33;3.33
46302;PMS7003;32029;51.358;5.628;2022-07-29T05:46:33;5.00;5.00;4.33
46302;PMS7003;32029;51.358;5.628;2022-07-29T05:49:01;5.67;5.67;4.67
46302;PMS7003;32029;51.358;5.628;2022-07-29T05:51:30;4.60;4.60;3.20
46302;PMS7003;32029;51.358;5.628;2022-07-29T05:53:56;5.67;5.67;5.00
46302;PMS7003;32029;51.358;5.628;2022-07-29T05:56:23;7.00;6.00;5.00
46302;PMS7003;32029;51.358;5.628;2022-07-29T05:58:51;6.00;5.00;4.00
46302;PMS7003;32029;51.358;5.628;2022-07-29T06:01:19;7.20;5.00;4.00
46302;PMS7003;32029;51.358;5.628;2022-07-29T06:03:45;6.33;5.00;4.67
46302;PMS7003;32029;51.358;5.628;2022-07-29T06:06:12;5.00;5.00;5.00
46302;PMS7003;32029;51.358;5.628;2022-07-29T06:08:39;6.00;5.00;4.00
46302;PMS7003;32029;51.358;5.628;2022-07-29T06:11:06;4.00;4.00;4.00
46302;PMS7003;32029;51.358;5.628;2022-07-29T06:13:35;5.20;5.00;4.40
46302;PMS7003;32029;51.358;5.628;2022-07-29T06:16:02;4.67;4.67;4.00
46302;PMS7003;32029;51.358;5.628;2022-07-29T06:18:29;6.00;6.00;5.00
46302;PMS7003;32029;51.358;5.628;2022-07-29T06:20:56;5.80;5.80;4.80
46302;PMS7003;32029;51.358;5.628;2022-07-29T06:23:23;6.33;6.00;6.00
46302;PMS7003;32029;51.358;5.628;2022-07-29T06:25:50;5.67;4.67;3.67
46302;PMS7003;32029;51.358;5.628;2022-07-29T06:28:16;6.00;5.00;4.00
46302;PMS7003;32029;51.358;5.628;2022-07-29T06:30:43;8.33;6.00;5.00
46302;PMS7003;32029;51.358;5.628;2022-07-29T06:33:15;7.00;7.00;5.40
46302;PMS7003;32029;51.358;5.628;2022-07-29T06:35:45;9.00;6.86;5.29
46302;PMS7003;32029;51.358;5.628;2022-07-29T06:38:16;8.00;7.00;6.00
46302;PMS7003;32029;51.358;5.628;2022-07-29T06:40:43;8.00;6.00;5.00
46302;PMS7003;32029;51.358;5.628;2022-07-29T06:43:40;11.00;6.33;5.00
46302;PMS7003;32029;51.358;5.628;2022-07-29T06:46:10;6.00;6.00;5.00
46302;PMS7003;32029;51.358;5.628;2022-07-29T06:48:40;5.60;5.60;5.00
46302;PMS7003;32029;51.358;5.628;2022-07-29T06:51:08;5.67;5.67;4.67
46302;PMS7003;32029;51.358;5.628;2022-07-29T06:53:36;9.00;8.20;6.00
46302;PMS7003;32029;51.358;5.628;2022-07-29T06:56:05;6.20;6.20;5.20
46302;PMS7003;32029;51.358;5.628;2022-07-29T06:58:36;9.40;7.20;6.00
46302;PMS7003;32029;51.358;5.628;2022-07-29T07:01:04;5.40;4.60;4.20
46302;PMS7003;32029;51.358;5.628;2022-07-29T07:03:32;5.00;3.67;3.00
46302;PMS7003;32029;51.358;5.628;2022-07-29T07:06:00;8.40;6.60;5.60
46302;PMS7003;32029;51.358;5.628;2022-07-29T07:08:28;6.60;6.60;6.00
46302;PMS7003;32029;51.358;5.628;2022-07-29T07:10:54;7.33;7.33;6.00
46302;PMS7003;32029;51.358;5.628;2022-07-29T07:13:22;7.67;7.67;5.33
46302;PMS7003;32029;51.358;5.628;2022-07-29T07:15:50;6.60;6.60;5.60
46302;PMS7003;32029;51.358;5.628;2022-07-29T07:18:18;6.00;6.00;4.00
46302;PMS7003;32029;51.358;5.628;2022-07-29T07:20:45;6.33;6.33;5.00
46302;PMS7003;32029;51.358;5.628;2022-07-29T07:23:13;7.40;7.00;5.60
46302;PMS7003;32029;51.358;5.628;2022-07-29T07:25:40;7.60;7.20;6.00
46302;PMS7003;32029;51.358;5.628;2022-07-29T07:28:09;8.60;7.20;6.00
46302;PMS7003;32029;51.358;5.628;2022-07-29T07:30:37;6.80;6.80;6.00
46302;PMS7003;32029;51.358;5.628;2022-07-29T07:33:05;9.60;8.20;6.80
46302;PMS7003;32029;51.358;5.628;2022-07-29T07:35:32;8.40;7.60;6.00
46302;PMS7003;32029;51.358;5.628;2022-07-29T07:37:59;7.00;7.00;6.33
46302;PMS7003;32029;51.358;5.628;2022-07-29T07:40:27;8.20;8.00;7.00
46302;PMS7003;32029;51.358;5.628;2022-07-29T07:42:55;7.40;7.40;6.40
46302;PMS7003;32029;51.358;5.628;2022-07-29T07:45:23;8.60;8.00;5.20
46302;PMS7003;32029;51.358;5.628;2022-07-29T07:47:51;9.60;8.40;7.60
46302;PMS7003;32029;51.358;5.628;2022-07-29T07:50:19;8.80;8.80;7.60
46302;PMS7003;32029;51.358;5.628;2022-07-29T07:52:48;10.20;7.60;7.00
46302;PMS7003;32029;51.358;5.628;2022-07-29T07:55:17;12.60;9.60;8.00
46302;PMS7003;32029;51.358;5.628;2022-07-29T07:57:46;8.00;8.00;7.00
46302;PMS7003;32029;51.358;5.628;2022-07-29T08:00:14;9.00;9.00;8.00
46302;PMS7003;32029;51.358;5.628;2022-07-29T08:02:43;11.60;9.40;6.80
46302;PMS7003;32029;51.358;5.628;2022-07-29T08:05:12;12.80;10.60;7.20
46302;PMS7003;32029;51.358;5.628;2022-07-29T08:07:45;13.00;8.20;7.40
46302;PMS7003;32029;51.358;5.628;2022-07-29T08:10:13;7.00;6.00;5.00
46302;PMS7003;32029;51.358;5.628;2022-07-29T08:12:40;11.67;8.67;8.00
46302;PMS7003;32029;51.358;5.628;2022-07-29T08:15:08;10.60;9.00;7.20
46302;PMS7003;32029;51.358;5.628;2022-07-29T08:17:36;9.80;9.60;8.00
46302;PMS7003;32029;51.358;5.628;2022-07-29T08:20:04;9.80;8.80;7.00
46302;PMS7003;32029;51.358;5.628;2022-07-29T08:22:31;9.67;8.00;7.00
46302;PMS7003;32029;51.358;5.628;2022-07-29T08:24:59;10.00;8.80;7.00
46302;PMS7003;32029;51.358;5.628;2022-07-29T08:27:27;10.80;9.40;8.60
46302;PMS7003;32029;51.358;5.628;2022-07-29T08:29:58;10.20;8.80;7.00
46302;PMS7003;32029;51.358;5.628;2022-07-29T08:32:25;9.00;8.60;7.80
46302;PMS7003;32029;51.358;5.628;2022-07-29T08:34:54;12.00;9.67;8.00
46302;PMS7003;32029;51.358;5.628;2022-07-29T08:37:22;9.80;9.80;8.40
46302;PMS7003;32029;51.358;5.628;2022-07-29T08:39:50;10.40;10.00;8.40
46302;PMS7003;32029;51.358;5.628;2022-07-29T08:42:17;8.33;8.33;6.00
46302;PMS7003;32029;51.358;5.628;2022-07-29T08:44:44;10.40;9.40;8.20
46302;PMS7003;32029;51.358;5.628;2022-07-29T08:47:13;9.67;9.67;8.33
46302;PMS7003;32029;51.358;5.628;2022-07-29T08:49:40;12.67;8.00;6.00
46302;PMS7003;32029;51.358;5.628;2022-07-29T08:52:09;10.67;9.00;8.00
46302;PMS7003;32029;51.358;5.628;2022-07-29T08:54:38;8.40;7.20;6.00
46302;PMS7003;32029;51.358;5.628;2022-07-29T08:57:07;10.20;9.20;8.20
46302;PMS7003;32029;51.358;5.628;2022-07-29T08:59:34;12.33;9.67;7.67
46302;PMS7003;32029;51.358;5.628;2022-07-29T09:02:04;10.80;9.80;7.80
46302;PMS7003;32029;51.358;5.628;2022-07-29T09:04:36;8.00;8.00;6.33
46302;PMS7003;32029;51.358;5.628;2022-07-29T09:07:05;9.40;9.40;8.60
46302;PMS7003;32029;51.358;5.628;2022-07-29T09:09:33;10.80;9.60;7.60
46302;PMS7003;32029;51.358;5.628;2022-07-29T09:12:01;10.00;9.80;8.40
46302;PMS7003;32029;51.358;5.628;2022-07-29T09:14:31;9.80;9.40;7.00
46302;PMS7003;32029;51.358;5.628;2022-07-29T09:16:58;12.00;10.00;8.00
46302;PMS7003;32029;51.358;5.628;2022-07-29T09:19:27;8.80;8.80;6.80
46302;PMS7003;32029;51.358;5.628;2022-07-29T09:21:58;8.67;8.67;7.00
46302;PMS7003;32029;51.358;5.628;2022-07-29T09:24:38;8.40;8.00;6.60
46302;PMS7003;32029;51.358;5.628;2022-07-29T09:27:08;9.33;9.33;8.67
46302;PMS7003;32029;51.358;5.628;2022-07-29T09:30:00;9.40;8.80;6.00
46302;PMS7003;32029;51.358;5.628;2022-07-29T09:32:30;9.67;9.00;8.00
46302;PMS7003;32029;51.358;5.628;2022-07-29T09:35:18;10.60;8.20;6.60
46302;PMS7003;32029;51.358;5.628;2022-07-29T09:37:47;11.33;10.00;6.67
46302;PMS7003;32029;51.358;5.628;2022-07-29T09:40:18;11.00;10.33;7.67
46302;PMS7003;32029;51.358;5.628;2022-07-29T09:42:46;9.33;9.33;7.33
46302;PMS7003;32029;51.358;5.628;2022-07-29T09:45:28;12.80;9.60;8.40
46302;PMS7003;32029;51.358;5.628;2022-07-29T09:47:57;9.20;9.20;8.00
46302;PMS7003;32029;51.358;5.628;2022-07-29T09:50:38;8.40;8.40;7.00
46302;PMS7003;32029;51.358;5.628;2022-07-29T09:53:06;10.67;9.33;6.67
46302;PMS7003;32029;51.358;5.628;2022-07-29T09:55:45;7.40;6.60;5.60
46302;PMS7003;32029;51.358;5.628;2022-07-29T09:58:22;6.00;6.00;5.00
46302;PMS7003;32029;51.358;5.628;2022-07-29T10:00:50;8.40;7.00;5.20
46302;PMS7003;32029;51.358;5.628;2022-07-29T10:03:20;6.80;6.80;5.80
46302;PMS7003;32029;51.358;5.628;2022-07-29T10:06:04;6.80;5.80;4.80
46302;PMS7003;32029;51.358;5.628;2022-07-29T10:08:33;10.20;10.20;8.20
46302;PMS7003;32029;51.358;5.628;2022-07-29T10:13:39;9.00;8.20;7.60
46302;PMS7003;32029;51.358;5.628;2022-07-29T10:16:08;6.20;5.00;5.00
46302;PMS7003;32029;51.358;5.628;2022-07-29T10:18:37;9.00;8.00;6.40
46302;PMS7003;32029;51.358;5.628;2022-07-29T10:21:07;9.60;7.40;5.60
46302;PMS7003;32029;51.358;5.628;2022-07-29T10:23:35;6.40;5.20;4.00
46302;PMS7003;32029;51.358;5.628;2022-07-29T10:26:04;5.00;4.60;4.00
46302;PMS7003;32029;51.358;5.628;2022-07-29T10:28:31;6.00;6.00;5.00
46302;PMS7003;32029;51.358;5.628;2022-07-29T10:31:04;5.00;5.00;4.00
46302;PMS7003;32029;51.358;5.628;2022-07-29T10:33:47;6.60;6.00;5.40
46302;PMS7003;32029;51.358;5.628;2022-07-29T10:42:25;4.20;3.00;2.20
46302;PMS7003;32029;51.358;5.628;2022-07-29T10:44:56;5.60;5.00;4.00
46302;PMS7003;32029;51.358;5.628;2022-07-29T10:47:25;7.60;5.00;4.00
46302;PMS7003;32029;51.358;5.628;2022-07-29T10:49:56;5.33;4.00;3.33
46302;PMS7003;32029;51.358;5.628;2022-07-29T10:55:51;3.40;2.80;2.80
46302;PMS7003;32029;51.358;5.628;2022-07-29T11:00:42;4.60;4.60;4.00
46302;PMS7003;32029;51.358;5.628;2022-07-29T11:03:15;5.00;4.00;4.00
46302;PMS7003;32029;51.358;5.628;2022-07-29T11:06:10;4.00;3.00;2.00
46302;PMS7003;32029;51.358;5.628;2022-07-29T11:08:38;3.40;3.40;3.00
46302;PMS7003;32029;51.358;5.628;2022-07-29T11:16:18;5.00;3.40;3.00
46302;PMS7003;32029;51.358;5.628;2022-07-29T11:21:38;4.00;4.00;3.40
46302;PMS7003;32029;51.358;5.628;2022-07-29T11:24:14;3.20;3.20;3.00
46302;PMS7003;32029;51.358;5.628;2022-07-29T11:29:49;3.00;2.33;2.00
46302;PMS7003;32029;51.358;5.628;2022-07-29T11:32:17;6.33;3.00;2.00
46302;PMS7003;32029;51.358;5.628;2022-07-29T11:34:50;3.80;3.80;3.00
46302;PMS7003;32029;51.358;5.628;2022-07-29T11:37:37;6.00;5.00;4.00
46302;PMS7003;32029;51.358;5.628;2022-07-29T11:47:37;4.00;4.00;3.00
46302;PMS7003;32029;51.358;5.628;2022-07-29T11:50:09;4.00;4.00;3.67
46302;PMS7003;32029;51.358;5.628;2022-07-29T11:52:46;4.00;3.00;3.00
46302;PMS7003;32029;51.358;5.628;2022-07-29T11:55:14;4.00;4.00;3.00
46302;PMS7003;32029;51.358;5.628;2022-07-29T11:57:47;3.80;3.00;2.60
46302;PMS7003;32029;51.358;5.628;2022-07-29T12:00:22;5.40;4.40;4.00
46302;PMS7003;32029;51.358;5.628;2022-07-29T12:02:50;7.60;5.00;4.00
46302;PMS7003;32029;51.358;5.628;2022-07-29T12:05:19;6.20;5.00;4.20
46302;PMS7003;32029;51.358;5.628;2022-07-29T12:07:47;5.67;5.33;4.00
46302;PMS7003;32029;51.358;5.628;2022-07-29T12:10:14;3.67;3.67;3.33
46302;PMS7003;32029;51.358;5.628;2022-07-29T12:12:42;6.00;6.00;5.00
46302;PMS7003;32029;51.358;5.628;2022-07-29T12:15:18;4.33;4.33;4.00
46302;PMS7003;32029;51.358;5.628;2022-07-29T12:17:51;7.00;4.20;3.80
46302;PMS7003;32029;51.358;5.628;2022-07-29T12:20:26;8.20;7.00;5.80
46302;PMS7003;32029;51.358;5.628;2022-07-29T12:22:55;8.00;6.80;5.80
46302;PMS7003;32029;51.358;5.628;2022-07-29T12:25:23;8.60;7.20;6.00
46302;PMS7003;32029;51.358;5.628;2022-07-29T12:27:57;6.00;6.00;5.00
46302;PMS7003;32029;51.358;5.628;2022-07-29T12:30:42;8.40;5.80;5.00
46302;PMS7003;32029;51.358;5.628;2022-07-29T12:35:44;7.60;7.60;5.60
46302;PMS7003;32029;51.358;5.628;2022-07-29T12:38:23;4.40;4.00;3.80
46302;PMS7003;32029;51.358;5.628;2022-07-29T12:40:52;6.20;5.60;4.80
46302;PMS7003;32029;51.358;5.628;2022-07-29T12:43:21;7.40;6.20;5.40
46302;PMS7003;32029;51.358;5.628;2022-07-29T12:45:50;6.00;5.00;3.00
46302;PMS7003;32029;51.358;5.628;2022-07-29T12:51:01;3.67;3.67;3.00
46302;PMS7003;32029;51.358;5.628;2022-07-29T12:53:30;5.00;4.60;3.00
46302;PMS7003;32029;51.358;5.628;2022-07-29T12:55:58;5.00;5.00;4.00
46302;PMS7003;32029;51.358;5.628;2022-07-29T12:58:34;7.60;6.60;5.00
46302;PMS7003;32029;51.358;5.628;2022-07-29T13:01:03;3.40;3.40;2.40
46302;PMS7003;32029;51.358;5.628;2022-07-29T13:03:48;5.20;4.60;3.60
46302;PMS7003;32029;51.358;5.628;2022-07-29T13:06:36;4.00;3.00;3.00
46302;PMS7003;32029;51.358;5.628;2022-07-29T13:09:36;4.40;3.60;2.00
46302;PMS7003;32029;51.358;5.628;2022-07-29T13:12:07;4.40;3.40;2.40
46302;PMS7003;32029;51.358;5.628;2022-07-29T13:14:38;5.40;5.00;4.00
46302;PMS7003;32029;51.358;5.628;2022-07-29T13:17:09;2.80;2.80;2.80
46302;PMS7003;32029;51.358;5.628;2022-07-29T13:22:13;4.80;3.80;3.00
46302;PMS7003;32029;51.358;5.628;2022-07-29T13:24:46;4.60;3.00;3.00
46302;PMS7003;32029;51.358;5.628;2022-07-29T13:27:23;5.20;4.00;4.00
46302;PMS7003;32029;51.358;5.628;2022-07-29T13:29:56;4.80;3.00;2.20
46302;PMS7003;32029;51.358;5.628;2022-07-29T13:32:24;2.00;2.00;1.33
46302;PMS7003;32029;51.358;5.628;2022-07-29T13:34:53;4.00;3.40;3.00
46302;PMS7003;32029;51.358;5.628;2022-07-29T13:37:21;3.00;3.00;3.00
46302;PMS7003;32029;51.358;5.628;2022-07-29T13:39:48;4.33;2.67;2.33
46302;PMS7003;32029;51.358;5.628;2022-07-29T13:42:16;3.20;3.20;3.00
46302;PMS7003;32029;51.358;5.628;2022-07-29T13:44:44;2.60;1.80;1.80
46302;PMS7003;32029;51.358;5.628;2022-07-29T13:47:11;2.40;2.40;2.00
46302;PMS7003;32029;51.358;5.628;2022-07-29T13:49:40;3.00;3.00;2.20
46302;PMS7003;32029;51.358;5.628;2022-07-29T13:52:08;7.40;5.40;4.00
46302;PMS7003;32029;51.358;5.628;2022-07-29T13:54:35;5.00;5.00;5.00
46302;PMS7003;32029;51.358;5.628;2022-07-29T13:57:05;4.40;4.40;3.60
46302;PMS7003;32029;51.358;5.628;2022-07-29T13:59:33;5.00;5.00;4.20
46302;PMS7003;32029;51.358;5.628;2022-07-29T14:02:01;5.00;4.00;3.00
46302;PMS7003;32029;51.358;5.628;2022-07-29T14:04:28;3.00;3.00;2.60
46302;PMS7003;32029;51.358;5.628;2022-07-29T14:06:55;4.33;3.33;2.67
46302;PMS7003;32029;51.358;5.628;2022-07-29T14:09:23;4.00;4.00;3.20
46302;PMS7003;32029;51.358;5.628;2022-07-29T14:11:51;4.60;3.40;3.00
46302;PMS7003;32029;51.358;5.628;2022-07-29T14:14:20;6.00;3.80;3.00
46302;PMS7003;32029;51.358;5.628;2022-07-29T14:16:47;3.40;3.40;2.20
46302;PMS7003;32029;51.358;5.628;2022-07-29T14:19:14;4.33;3.00;2.33
46302;PMS7003;32029;51.358;5.628;2022-07-29T14:21:42;4.60;3.00;2.00
46302;PMS7003;32029;51.358;5.628;2022-07-29T14:24:10;2.00;1.00;1.00
46302;PMS7003;32029;51.358;5.628;2022-07-29T14:26:37;3.00;2.67;2.00
46302;PMS7003;32029;51.358;5.628;2022-07-29T14:29:04;4.00;2.00;1.33
46302;PMS7003;32029;51.358;5.628;2022-07-29T14:31:31;2.00;2.00;1.67
46302;PMS7003;32029;51.358;5.628;2022-07-29T14:33:58;1.20;1.20;1.00
46302;PMS7003;32029;51.358;5.628;2022-07-29T14:36:25;3.00;3.00;3.00
46302;PMS7003;32029;51.358;5.628;2022-07-29T14:38:54;2.80;2.40;2.00
46302;PMS7003;32029;51.358;5.628;2022-07-29T14:41:22;2.00;2.00;2.00
46302;PMS7003;32029;51.358;5.628;2022-07-29T14:43:49;3.33;2.67;2.00
46302;PMS7003;32029;51.358;5.628;2022-07-29T14:46:17;4.20;2.80;2.60
46302;PMS7003;32029;51.358;5.628;2022-07-29T14:48:43;3.33;2.33;2.00
46302;PMS7003;32029;51.358;5.628;2022-07-29T14:51:10;3.00;2.33;2.00
46302;PMS7003;32029;51.358;5.628;2022-07-29T14:53:37;4.00;2.00;2.00
46302;PMS7003;32029;51.358;5.628;2022-07-29T14:56:06;4.40;3.80;3.00
46302;PMS7003;32029;51.358;5.628;2022-07-29T14:58:32;3.00;1.67;1.00
46302;PMS7003;32029;51.358;5.628;2022-07-29T15:01:00;1.80;1.40;1.40
46302;PMS7003;32029;51.358;5.628;2022-07-29T15:03:28;2.00;2.00;2.00
46302;PMS7003;32029;51.358;5.628;2022-07-29T15:05:55;4.33;2.00;2.00
46302;PMS7003;32029;51.358;5.628;2022-07-29T15:08:23;2.80;2.80;2.00
46302;PMS7003;32029;51.358;5.628;2022-07-29T15:10:52;2.60;2.40;2.00
46302;PMS7003;32029;51.358;5.628;2022-07-29T15:13:20;2.00;2.00;1.00
46302;PMS7003;32029;51.358;5.628;2022-07-29T15:15:48;3.00;2.00;1.60
46302;PMS7003;32029;51.358;5.628;2022-07-29T15:18:17;3.40;2.60;2.60
46302;PMS7003;32029;51.358;5.628;2022-07-29T15:20:44;3.67;2.67;2.33
46302;PMS7003;32029;51.358;5.628;2022-07-29T15:23:13;4.80;3.00;2.00
46302;PMS7003;32029;51.358;5.628;2022-07-29T15:25:41;3.20;1.80;1.60
46302;PMS7003;32029;51.358;5.628;2022-07-29T15:28:08;3.67;2.00;1.00